sensor_id;sensor_type;location;lat;lon;timestamp;P1;durP1;ratioP1;P2;durP2;ratioP2
18505;SDS011;9382;53.242;10.438;2023-04-06T00:00:01;7.30;;;5.40;;
18505;SDS011;9382;53.242;10.438;2023-04-06T00:02:29;8.77;;;5.83;;
18505;SDS011;9382;53.242;10.438;2023-04-06T00:04:55;7.80;;;5.73;;
18505;SDS011;9382;53.242;10.438;2023-04-06T00:07:22;8.43;;;5.60;;
18505;SDS011;9382;53.242;10.438;2023-04-06T00:09:50;7.07;;;5.80;;
18505;SDS011;9382;53.242;10.438;2023-04-06T00:12:17;9.90;;;5.83;;
18505;SDS011;9382;53.242;10.438;2023-04-06T00:14:44;10.13;;;6.00;;
18505;SDS011;9382;53.242;10.438;2023-04-06T00:17:11;7.97;;;5.70;;
18505;SDS011;9382;53.242;10.438;2023-04-06T00:19:37;8.97;;;5.90;;
18505;SDS011;9382;53.242;10.438;2023-04-06T00:22:04;7.83;;;5.93;;
18505;SDS011;9382;53.242;10.438;2023-04-06T00:24:31;8.33;;;5.80;;
18505;SDS011;9382;53.242;10.438;2023-04-06T00:26:59;8.97;;;6.23;;
18505;SDS011;9382;53.242;10.438;2023-04-06T00:29:26;10.43;;;6.10;;
18505;SDS011;9382;53.242;10.438;2023-04-06T00:31:53;12.23;;;6.40;;
18505;SDS011;9382;53.242;10.438;2023-04-06T00:34:19;10.03;;;6.50;;
18505;SDS011;9382;53.242;10.438;2023-04-06T00:36:46;9.53;;;6.10;;
18505;SDS011;9382;53.242;10.438;2023-04-06T00:39:13;9.20;;;6.17;;
18505;SDS011;9382;53.242;10.438;2023-04-06T00:41:41;10.27;;;6.33;;
18505;SDS011;9382;53.242;10.438;2023-04-06T00:44:14;8.93;;;6.43;;
18505;SDS011;9382;53.242;10.438;2023-04-06T00:46:40;9.43;;;6.20;;
18505;SDS011;9382;53.242;10.438;2023-04-06T00:49:07;8.83;;;6.40;;
18505;SDS011;9382;53.242;10.438;2023-04-06T00:51:34;7.87;;;6.03;;
18505;SDS011;9382;53.242;10.438;2023-04-06T00:54:00;8.53;;;6.10;;
18505;SDS011;9382;53.242;10.438;2023-04-06T00:56:27;9.67;;;6.20;;
18505;SDS011;9382;53.242;10.438;2023-04-06T00:58:54;10.60;;;6.20;;
18505;SDS011;9382;53.242;10.438;2023-04-06T01:01:24;10.30;;;6.60;;
18505;SDS011;9382;53.242;10.438;2023-04-06T01:03:51;10.77;;;6.00;;
18505;SDS011;9382;53.242;10.438;2023-04-06T01:06:17;12.03;;;6.57;;
18505;SDS011;9382;53.242;10.438;2023-04-06T01:08:44;9.97;;;6.27;;
18505;SDS011;9382;53.242;10.438;2023-04-06T01:11:11;12.33;;;6.73;;
18505;SDS011;9382;53.242;10.438;2023-04-06T01:13:38;9.63;;;6.40;;
18505;SDS011;9382;53.242;10.438;2023-04-06T01:16:05;10.23;;;6.70;;
18505;SDS011;9382;53.242;10.438;2023-04-06T01:18:33;10.10;;;6.90;;
18505;SDS011;9382;53.242;10.438;2023-04-06T01:21:00;8.67;;;6.17;;
18505;SDS011;9382;53.242;10.438;2023-04-06T01:23:28;11.50;;;6.47;;
18505;SDS011;9382;53.242;10.438;2023-04-06T01:25:54;9.73;;;6.53;;
18505;SDS011;9382;53.242;10.438;2023-04-06T01:28:21;9.30;;;6.40;;
18505;SDS011;9382;53.242;10.438;2023-04-06T01:30:48;10.47;;;6.63;;
18505;SDS011;9382;53.242;10.438;2023-04-06T01:33:15;9.03;;;6.33;;
18505;SDS011;9382;53.242;10.438;2023-04-06T01:35:41;10.30;;;6.60;;
18505;SDS011;9382;53.242;10.438;2023-04-06T01:38:08;9.60;;;6.80;;
18505;SDS011;9382;53.242;10.438;2023-04-06T01:40:36;11.30;;;6.47;;
18505;SDS011;9382;53.242;10.438;2023-04-06T01:43:03;10.60;;;6.33;;
18505;SDS011;9382;53.242;10.438;2023-04-06T01:45:30;11.57;;;6.00;;
18505;SDS011;9382;53.242;10.438;2023-04-06T01:47:56;10.57;;;5.90;;
18505;SDS011;9382;53.242;10.438;2023-04-06T01:50:23;12.23;;;6.00;;
18505;SDS011;9382;53.242;10.438;2023-04-06T01:52:50;10.47;;;5.90;;
18505;SDS011;9382;53.242;10.438;2023-04-06T01:55:17;9.00;;;6.30;;
18505;SDS011;9382;53.242;10.438;2023-04-06T01:57:45;10.43;;;6.20;;
18505;SDS011;9382;53.242;10.438;2023-04-06T02:00:13;12.63;;;6.40;;
18505;SDS011;9382;53.242;10.438;2023-04-06T02:02:40;10.47;;;6.27;;
18505;SDS011;9382;53.242;10.438;2023-04-06T02:05:07;8.37;;;5.60;;
18505;SDS011;9382;53.242;10.438;2023-04-06T02:07:34;10.87;;;5.87;;
18505;SDS011;9382;53.242;10.438;2023-04-06T02:10:01;9.73;;;5.63;;
18505;SDS011;9382;53.242;10.438;2023-04-06T02:12:28;9.20;;;6.00;;
18505;SDS011;9382;53.242;10.438;2023-04-06T02:14:56;9.30;;;6.03;;
18505;SDS011;9382;53.242;10.438;2023-04-06T02:17:23;9.47;;;6.43;;
18505;SDS011;9382;53.242;10.438;2023-04-06T02:19:50;12.63;;;5.93;;
18505;SDS011;9382;53.242;10.438;2023-04-06T02:22:16;8.60;;;5.90;;
18505;SDS011;9382;53.242;10.438;2023-04-06T02:24:43;12.03;;;7.03;;
18505;SDS011;9382;53.242;10.438;2023-04-06T02:27:10;10.60;;;6.63;;
18505;SDS011;9382;53.242;10.438;2023-04-06T02:29:37;11.80;;;6.90;;
18505;SDS011;9382;53.242;10.438;2023-04-06T02:32:05;8.37;;;5.70;;
18505;SDS011;9382;53.242;10.438;2023-04-06T02:34:32;9.20;;;6.37;;
18505;SDS011;9382;53.242;10.438;2023-04-06T02:36:58;10.37;;;6.43;;
18505;SDS011;9382;53.242;10.438;2023-04-06T02:39:25;9.40;;;6.10;;
18505;SDS011;9382;53.242;10.438;2023-04-06T02:41:52;8.10;;;5.93;;
18505;SDS011;9382;53.242;10.438;2023-04-06T02:44:19;10.17;;;6.00;;
18505;SDS011;9382;53.242;10.438;2023-04-06T02:46:45;10.30;;;6.57;;
18505;SDS011;9382;53.242;10.438;2023-04-06T02:49:13;10.50;;;6.70;;
18505;SDS011;9382;53.242;10.438;2023-04-06T02:51:40;11.00;;;7.00;;
18505;SDS011;9382;53.242;10.438;2023-04-06T02:54:07;9.73;;;6.70;;
18505;SDS011;9382;53.242;10.438;2023-04-06T02:56:34;10.63;;;6.47;;
18505;SDS011;9382;53.242;10.438;2023-04-06T02:59:00;10.57;;;6.20;;
18505;SDS011;9382;53.242;10.438;2023-04-06T03:01:27;9.43;;;6.23;;
18505;SDS011;9382;53.242;10.438;2023-04-06T03:03:54;10.63;;;6.20;;
18505;SDS011;9382;53.242;10.438;2023-04-06T03:06:22;10.47;;;6.50;;
18505;SDS011;9382;53.242;10.438;2023-04-06T03:08:49;10.13;;;6.00;;
18505;SDS011;9382;53.242;10.438;2023-04-06T03:11:16;10.17;;;6.73;;
18505;SDS011;9382;53.242;10.438;2023-04-06T03:13:43;11.07;;;6.37;;
18505;SDS011;9382;53.242;10.438;2023-04-06T03:16:10;10.13;;;6.40;;
18505;SDS011;9382;53.242;10.438;2023-04-06T03:18:37;11.03;;;6.27;;
18505;SDS011;9382;53.242;10.438;2023-04-06T03:21:04;10.47;;;6.40;;
18505;SDS011;9382;53.242;10.438;2023-04-06T03:23:32;8.77;;;6.20;;
18505;SDS011;9382;53.242;10.438;2023-04-06T03:25:59;9.73;;;6.90;;
18505;SDS011;9382;53.242;10.438;2023-04-06T03:28:26;11.10;;;6.83;;
18505;SDS011;9382;53.242;10.438;2023-04-06T03:30:53;8.90;;;6.57;;
18505;SDS011;9382;53.242;10.438;2023-04-06T03:33:20;11.87;;;7.97;;
18505;SDS011;9382;53.242;10.438;2023-04-06T03:35:46;10.30;;;7.20;;
18505;SDS011;9382;53.242;10.438;2023-04-06T03:38:13;11.87;;;7.90;;
18505;SDS011;9382;53.242;10.438;2023-04-06T03:40:41;13.57;;;7.90;;
18505;SDS011;9382;53.242;10.438;2023-04-06T03:43:08;12.10;;;8.03;;
18505;SDS011;9382;53.242;10.438;2023-04-06T03:45:35;10.60;;;7.30;;
18505;SDS011;9382;53.242;10.438;2023-04-06T03:48:01;10.20;;;7.30;;
18505;SDS011;9382;53.242;10.438;2023-04-06T03:50:28;13.67;;;8.47;;
18505;SDS011;9382;53.242;10.438;2023-04-06T03:52:55;11.40;;;7.63;;
18505;SDS011;9382;53.242;10.438;2023-04-06T03:55:22;16.10;;;8.30;;
18505;SDS011;9382;53.242;10.438;2023-04-06T03:57:50;16.60;;;8.13;;
18505;SDS011;9382;53.242;10.438;2023-04-06T04:00:17;12.33;;;7.97;;
18505;SDS011;9382;53.242;10.438;2023-04-06T04:02:44;16.50;;;8.37;;
18505;SDS011;9382;53.242;10.438;2023-04-06T04:05:10;11.67;;;7.73;;
18505;SDS011;9382;53.242;10.438;2023-04-06T04:07:37;15.70;;;8.07;;
18505;SDS011;9382;53.242;10.438;2023-04-06T04:10:04;15.30;;;8.73;;
18505;SDS011;9382;53.242;10.438;2023-04-06T04:12:31;13.60;;;8.60;;
18505;SDS011;9382;53.242;10.438;2023-04-06T04:14:59;14.17;;;9.67;;
18505;SDS011;9382;53.242;10.438;2023-04-06T04:17:26;15.57;;;9.37;;
18505;SDS011;9382;53.242;10.438;2023-04-06T04:19:53;14.57;;;8.93;;
18505;SDS011;9382;53.242;10.438;2023-04-06T04:22:20;12.67;;;8.40;;
18505;SDS011;9382;53.242;10.438;2023-04-06T04:24:46;14.77;;;9.57;;
18505;SDS011;9382;53.242;10.438;2023-04-06T04:27:13;15.20;;;9.43;;
18505;SDS011;9382;53.242;10.438;2023-04-06T04:29:40;19.23;;;10.60;;
18505;SDS011;9382;53.242;10.438;2023-04-06T04:32:10;17.47;;;10.73;;
18505;SDS011;9382;53.242;10.438;2023-04-06T04:34:36;19.67;;;11.23;;
18505;SDS011;9382;53.242;10.438;2023-04-06T04:37:05;14.80;;;10.53;;
18505;SDS011;9382;53.242;10.438;2023-04-06T04:39:31;15.43;;;11.20;;
18505;SDS011;9382;53.242;10.438;2023-04-06T04:41:58;18.43;;;11.03;;
18505;SDS011;9382;53.242;10.438;2023-04-06T04:44:25;16.77;;;10.87;;
18505;SDS011;9382;53.242;10.438;2023-04-06T04:46:52;15.23;;;10.07;;
18505;SDS011;9382;53.242;10.438;2023-04-06T04:49:20;15.67;;;9.97;;
18505;SDS011;9382;53.242;10.438;2023-04-06T04:51:47;16.80;;;11.20;;
18505;SDS011;9382;53.242;10.438;2023-04-06T04:54:16;27.03;;;11.83;;
18505;SDS011;9382;53.242;10.438;2023-04-06T04:56:43;21.23;;;12.00;;
18505;SDS011;9382;53.242;10.438;2023-04-06T04:59:10;16.43;;;11.07;;
18505;SDS011;9382;53.242;10.438;2023-04-06T05:01:36;14.87;;;9.73;;
18505;SDS011;9382;53.242;10.438;2023-04-06T05:04:03;16.63;;;10.37;;
18505;SDS011;9382;53.242;10.438;2023-04-06T05:06:31;13.87;;;8.93;;
18505;SDS011;9382;53.242;10.438;2023-04-06T05:08:58;12.80;;;8.30;;
18505;SDS011;9382;53.242;10.438;2023-04-06T05:11:25;12.50;;;7.83;;
18505;SDS011;9382;53.242;10.438;2023-04-06T05:13:51;12.73;;;8.30;;
18505;SDS011;9382;53.242;10.438;2023-04-06T05:16:18;14.93;;;8.37;;
18505;SDS011;9382;53.242;10.438;2023-04-06T05:18:45;16.93;;;11.03;;
18505;SDS011;9382;53.242;10.438;2023-04-06T05:21:13;21.00;;;12.77;;
18505;SDS011;9382;53.242;10.438;2023-04-06T05:23:41;19.73;;;12.53;;
18505;SDS011;9382;53.242;10.438;2023-04-06T05:26:08;22.53;;;13.13;;
18505;SDS011;9382;53.242;10.438;2023-04-06T05:28:35;21.07;;;13.60;;
18505;SDS011;9382;53.242;10.438;2023-04-06T05:31:02;18.50;;;12.50;;
18505;SDS011;9382;53.242;10.438;2023-04-06T05:33:29;24.73;;;14.10;;
18505;SDS011;9382;53.242;10.438;2023-04-06T05:35:56;23.73;;;14.07;;
18505;SDS011;9382;53.242;10.438;2023-04-06T05:38:25;21.37;;;13.93;;
18505;SDS011;9382;53.242;10.438;2023-04-06T05:40:53;24.07;;;14.17;;
18505;SDS011;9382;53.242;10.438;2023-04-06T05:43:20;19.50;;;12.73;;
18505;SDS011;9382;53.242;10.438;2023-04-06T05:45:47;23.97;;;12.77;;
18505;SDS011;9382;53.242;10.438;2023-04-06T05:48:14;20.90;;;12.17;;
18505;SDS011;9382;53.242;10.438;2023-04-06T05:50:40;18.77;;;11.67;;
18505;SDS011;9382;53.242;10.438;2023-04-06T05:53:07;18.67;;;11.30;;
18505;SDS011;9382;53.242;10.438;2023-04-06T05:55:34;18.43;;;10.97;;
18505;SDS011;9382;53.242;10.438;2023-04-06T05:58:02;14.53;;;10.20;;
18505;SDS011;9382;53.242;10.438;2023-04-06T06:00:29;14.83;;;9.43;;
18505;SDS011;9382;53.242;10.438;2023-04-06T06:02:56;13.00;;;9.27;;
18505;SDS011;9382;53.242;10.438;2023-04-06T06:05:22;12.63;;;9.20;;
18505;SDS011;9382;53.242;10.438;2023-04-06T06:07:49;13.47;;;9.20;;
18505;SDS011;9382;53.242;10.438;2023-04-06T06:10:16;14.43;;;9.00;;
18505;SDS011;9382;53.242;10.438;2023-04-06T06:12:43;14.37;;;9.70;;
18505;SDS011;9382;53.242;10.438;2023-04-06T06:15:11;13.30;;;8.70;;
18505;SDS011;9382;53.242;10.438;2023-04-06T06:17:38;15.27;;;8.37;;
18505;SDS011;9382;53.242;10.438;2023-04-06T06:20:06;11.50;;;8.00;;
18505;SDS011;9382;53.242;10.438;2023-04-06T06:22:33;11.03;;;6.80;;
18505;SDS011;9382;53.242;10.438;2023-04-06T06:25:00;9.50;;;7.03;;
18505;SDS011;9382;53.242;10.438;2023-04-06T06:27:27;9.43;;;6.40;;
18505;SDS011;9382;53.242;10.438;2023-04-06T06:29:54;7.43;;;6.50;;
18505;SDS011;9382;53.242;10.438;2023-04-06T06:32:22;8.87;;;6.50;;
18505;SDS011;9382;53.242;10.438;2023-04-06T06:34:49;10.20;;;6.50;;
18505;SDS011;9382;53.242;10.438;2023-04-06T06:37:16;10.47;;;6.40;;
18505;SDS011;9382;53.242;10.438;2023-04-06T06:39:43;9.27;;;6.00;;
18505;SDS011;9382;53.242;10.438;2023-04-06T06:42:09;8.27;;;6.30;;
18505;SDS011;9382;53.242;10.438;2023-04-06T06:44:36;7.77;;;6.17;;
18505;SDS011;9382;53.242;10.438;2023-04-06T06:47:03;8.77;;;5.83;;
18505;SDS011;9382;53.242;10.438;2023-04-06T06:49:31;9.00;;;5.80;;
18505;SDS011;9382;53.242;10.438;2023-04-06T06:51:58;9.47;;;5.73;;
18505;SDS011;9382;53.242;10.438;2023-04-06T06:54:24;9.53;;;6.13;;
18505;SDS011;9382;53.242;10.438;2023-04-06T06:56:51;7.43;;;5.30;;
18505;SDS011;9382;53.242;10.438;2023-04-06T06:59:19;10.80;;;5.70;;
18505;SDS011;9382;53.242;10.438;2023-04-06T07:01:47;9.90;;;5.57;;
18505;SDS011;9382;53.242;10.438;2023-04-06T07:04:13;8.43;;;5.23;;
18505;SDS011;9382;53.242;10.438;2023-04-06T07:06:41;6.93;;;5.40;;
18505;SDS011;9382;53.242;10.438;2023-04-06T07:09:08;7.13;;;5.70;;
18505;SDS011;9382;53.242;10.438;2023-04-06T07:11:35;7.33;;;5.43;;
18505;SDS011;9382;53.242;10.438;2023-04-06T07:14:02;8.50;;;5.13;;
18505;SDS011;9382;53.242;10.438;2023-04-06T07:16:28;8.27;;;5.47;;
18505;SDS011;9382;53.242;10.438;2023-04-06T07:18:55;6.93;;;5.43;;
18505;SDS011;9382;53.242;10.438;2023-04-06T07:21:22;5.70;;;5.00;;
18505;SDS011;9382;53.242;10.438;2023-04-06T07:23:50;8.60;;;5.37;;
18505;SDS011;9382;53.242;10.438;2023-04-06T07:26:16;8.87;;;5.40;;
18505;SDS011;9382;53.242;10.438;2023-04-06T07:28:43;7.87;;;5.30;;
18505;SDS011;9382;53.242;10.438;2023-04-06T07:31:10;6.77;;;5.00;;
18505;SDS011;9382;53.242;10.438;2023-04-06T07:33:36;6.30;;;5.33;;
18505;SDS011;9382;53.242;10.438;2023-04-06T07:36:03;7.07;;;5.33;;
18505;SDS011;9382;53.242;10.438;2023-04-06T07:38:30;7.00;;;5.53;;
18505;SDS011;9382;53.242;10.438;2023-04-06T07:40:58;7.63;;;5.07;;
18505;SDS011;9382;53.242;10.438;2023-04-06T07:43:28;9.20;;;5.40;;
18505;SDS011;9382;53.242;10.438;2023-04-06T07:45:55;5.83;;;4.53;;
18505;SDS011;9382;53.242;10.438;2023-04-06T07:48:22;8.77;;;4.90;;
18505;SDS011;9382;53.242;10.438;2023-04-06T07:50:49;8.40;;;5.10;;
18505;SDS011;9382;53.242;10.438;2023-04-06T07:53:16;8.23;;;5.30;;
18505;SDS011;9382;53.242;10.438;2023-04-06T07:55:42;6.97;;;4.77;;
18505;SDS011;9382;53.242;10.438;2023-04-06T07:58:11;8.23;;;5.40;;
18505;SDS011;9382;53.242;10.438;2023-04-06T08:00:37;7.60;;;4.70;;
18505;SDS011;9382;53.242;10.438;2023-04-06T08:03:04;6.37;;;4.60;;
18505;SDS011;9382;53.242;10.438;2023-04-06T08:05:32;7.80;;;5.23;;
18505;SDS011;9382;53.242;10.438;2023-04-06T08:07:58;6.03;;;4.40;;
18505;SDS011;9382;53.242;10.438;2023-04-06T08:10:25;6.43;;;4.60;;
18505;SDS011;9382;53.242;10.438;2023-04-06T08:12:52;7.83;;;4.50;;
18505;SDS011;9382;53.242;10.438;2023-04-06T08:15:20;7.47;;;4.73;;
18505;SDS011;9382;53.242;10.438;2023-04-06T08:17:47;7.90;;;4.70;;
18505;SDS011;9382;53.242;10.438;2023-04-06T08:20:14;5.73;;;4.47;;
18505;SDS011;9382;53.242;10.438;2023-04-06T08:22:40;11.20;;;4.83;;
18505;SDS011;9382;53.242;10.438;2023-04-06T08:25:07;7.83;;;4.73;;
18505;SDS011;9382;53.242;10.438;2023-04-06T08:27:34;6.90;;;4.30;;
18505;SDS011;9382;53.242;10.438;2023-04-06T08:30:01;8.73;;;4.90;;
18505;SDS011;9382;53.242;10.438;2023-04-06T08:32:29;6.43;;;4.50;;
18505;SDS011;9382;53.242;10.438;2023-04-06T08:34:56;8.03;;;4.60;;
18505;SDS011;9382;53.242;10.438;2023-04-06T08:37:22;7.37;;;4.20;;
18505;SDS011;9382;53.242;10.438;2023-04-06T08:39:49;6.87;;;4.50;;
18505;SDS011;9382;53.242;10.438;2023-04-06T08:42:18;6.23;;;4.47;;
18505;SDS011;9382;53.242;10.438;2023-04-06T08:44:47;6.37;;;4.67;;
18505;SDS011;9382;53.242;10.438;2023-04-06T08:47:16;5.77;;;4.53;;
18505;SDS011;9382;53.242;10.438;2023-04-06T08:49:44;7.40;;;4.00;;
18505;SDS011;9382;53.242;10.438;2023-04-06T08:52:11;5.87;;;4.13;;
18505;SDS011;9382;53.242;10.438;2023-04-06T08:54:39;7.83;;;4.80;;
18505;SDS011;9382;53.242;10.438;2023-04-06T08:57:05;9.60;;;4.37;;
18505;SDS011;9382;53.242;10.438;2023-04-06T08:59:33;8.20;;;4.70;;
18505;SDS011;9382;53.242;10.438;2023-04-06T09:02:01;6.37;;;4.10;;
18505;SDS011;9382;53.242;10.438;2023-04-06T09:04:30;5.67;;;4.43;;
18505;SDS011;9382;53.242;10.438;2023-04-06T09:07:00;6.53;;;4.67;;
18505;SDS011;9382;53.242;10.438;2023-04-06T09:09:26;10.77;;;4.47;;
18505;SDS011;9382;53.242;10.438;2023-04-06T09:11:53;6.60;;;4.53;;
18505;SDS011;9382;53.242;10.438;2023-04-06T09:14:32;7.23;;;4.63;;
18505;SDS011;9382;53.242;10.438;2023-04-06T09:17:00;8.37;;;4.50;;
18505;SDS011;9382;53.242;10.438;2023-04-06T09:19:27;6.27;;;4.57;;
18505;SDS011;9382;53.242;10.438;2023-04-06T09:22:02;6.80;;;4.73;;
18505;SDS011;9382;53.242;10.438;2023-04-06T09:24:39;6.20;;;4.10;;
18505;SDS011;9382;53.242;10.438;2023-04-06T09:27:06;8.00;;;4.60;;
18505;SDS011;9382;53.242;10.438;2023-04-06T09:29:33;5.53;;;4.10;;
18505;SDS011;9382;53.242;10.438;2023-04-06T09:32:02;9.27;;;4.50;;
18505;SDS011;9382;53.242;10.438;2023-04-06T09:34:29;7.77;;;4.77;;
18505;SDS011;9382;53.242;10.438;2023-04-06T09:36:56;9.63;;;5.20;;
18505;SDS011;9382;53.242;10.438;2023-04-06T09:39:24;7.73;;;4.80;;
18505;SDS011;9382;53.242;10.438;2023-04-06T09:41:52;7.77;;;4.90;;
18505;SDS011;9382;53.242;10.438;2023-04-06T09:44:20;7.80;;;5.00;;
18505;SDS011;9382;53.242;10.438;2023-04-06T09:46:48;7.43;;;5.77;;
18505;SDS011;9382;53.242;10.438;2023-04-06T09:49:15;7.80;;;5.77;;
18505;SDS011;9382;53.242;10.438;2023-04-06T09:51:45;7.73;;;5.27;;
18505;SDS011;9382;53.242;10.438;2023-04-06T09:54:15;6.43;;;5.10;;
18505;SDS011;9382;53.242;10.438;2023-04-06T09:56:47;8.50;;;5.40;;
18505;SDS011;9382;53.242;10.438;2023-04-06T09:59:26;7.50;;;5.17;;
18505;SDS011;9382;53.242;10.438;2023-04-06T10:01:58;8.17;;;5.00;;
18505;SDS011;9382;53.242;10.438;2023-04-06T10:04:28;8.83;;;5.03;;
18505;SDS011;9382;53.242;10.438;2023-04-06T10:06:59;6.17;;;4.97;;
18505;SDS011;9382;53.242;10.438;2023-04-06T10:09:28;7.53;;;5.30;;
18505;SDS011;9382;53.242;10.438;2023-04-06T10:12:02;8.33;;;5.20;;
18505;SDS011;9382;53.242;10.438;2023-04-06T10:14:30;10.67;;;5.60;;
18505;SDS011;9382;53.242;10.438;2023-04-06T10:16:58;7.73;;;4.93;;
18505;SDS011;9382;53.242;10.438;2023-04-06T10:19:27;7.80;;;5.20;;
18505;SDS011;9382;53.242;10.438;2023-04-06T10:22:00;8.70;;;5.23;;
18505;SDS011;9382;53.242;10.438;2023-04-06T10:24:30;8.93;;;5.50;;
18505;SDS011;9382;53.242;10.438;2023-04-06T10:26:57;6.63;;;5.20;;
18505;SDS011;9382;53.242;10.438;2023-04-06T10:29:26;11.10;;;5.70;;
18505;SDS011;9382;53.242;10.438;2023-04-06T10:31:53;8.60;;;5.83;;
18505;SDS011;9382;53.242;10.438;2023-04-06T10:34:21;8.57;;;5.67;;
18505;SDS011;9382;53.242;10.438;2023-04-06T10:36:47;9.13;;;5.50;;
18505;SDS011;9382;53.242;10.438;2023-04-06T10:39:14;6.53;;;5.13;;
18505;SDS011;9382;53.242;10.438;2023-04-06T10:41:51;9.03;;;5.53;;
18505;SDS011;9382;53.242;10.438;2023-04-06T10:44:19;7.80;;;5.30;;
18505;SDS011;9382;53.242;10.438;2023-04-06T10:46:53;6.30;;;5.30;;
18505;SDS011;9382;53.242;10.438;2023-04-06T10:49:21;9.63;;;5.70;;
18505;SDS011;9382;53.242;10.438;2023-04-06T10:51:50;8.80;;;5.73;;
18505;SDS011;9382;53.242;10.438;2023-04-06T10:54:18;10.13;;;5.70;;
18505;SDS011;9382;53.242;10.438;2023-04-06T10:56:46;10.03;;;6.33;;
18505;SDS011;9382;53.242;10.438;2023-04-06T10:59:13;9.60;;;5.60;;
18505;SDS011;9382;53.242;10.438;2023-04-06T11:01:44;9.57;;;5.90;;
18505;SDS011;9382;53.242;10.438;2023-04-06T11:04:15;6.90;;;5.20;;
18505;SDS011;9382;53.242;10.438;2023-04-06T11:06:45;12.13;;;5.63;;
18505;SDS011;9382;53.242;10.438;2023-04-06T11:09:22;9.57;;;6.17;;
18505;SDS011;9382;53.242;10.438;2023-04-06T11:11:49;8.30;;;6.00;;
18505;SDS011;9382;53.242;10.438;2023-04-06T11:14:17;7.57;;;5.30;;
18505;SDS011;9382;53.242;10.438;2023-04-06T11:16:45;9.07;;;6.20;;
18505;SDS011;9382;53.242;10.438;2023-04-06T11:19:14;8.17;;;5.50;;
18505;SDS011;9382;53.242;10.438;2023-04-06T11:21:42;7.20;;;5.70;;
18505;SDS011;9382;53.242;10.438;2023-04-06T11:24:13;8.47;;;6.13;;
18505;SDS011;9382;53.242;10.438;2023-04-06T11:26:41;9.73;;;5.83;;
18505;SDS011;9382;53.242;10.438;2023-04-06T11:29:09;10.07;;;6.00;;
18505;SDS011;9382;53.242;10.438;2023-04-06T11:31:37;11.33;;;6.00;;
18505;SDS011;9382;53.242;10.438;2023-04-06T11:34:12;7.00;;;5.47;;
18505;SDS011;9382;53.242;10.438;2023-04-06T11:36:41;9.40;;;6.37;;
18505;SDS011;9382;53.242;10.438;2023-04-06T11:39:08;8.83;;;6.10;;
18505;SDS011;9382;53.242;10.438;2023-04-06T11:41:36;9.33;;;6.33;;
18505;SDS011;9382;53.242;10.438;2023-04-06T11:44:03;8.33;;;6.00;;
18505;SDS011;9382;53.242;10.438;2023-04-06T11:46:31;9.63;;;7.03;;
18505;SDS011;9382;53.242;10.438;2023-04-06T11:48:58;9.57;;;6.23;;
18505;SDS011;9382;53.242;10.438;2023-04-06T11:51:26;8.80;;;6.60;;
18505;SDS011;9382;53.242;10.438;2023-04-06T11:53:54;11.40;;;6.87;;
18505;SDS011;9382;53.242;10.438;2023-04-06T11:56:25;10.70;;;6.40;;
18505;SDS011;9382;53.242;10.438;2023-04-06T11:58:56;12.40;;;6.60;;
18505;SDS011;9382;53.242;10.438;2023-04-06T12:01:24;8.80;;;6.60;;
18505;SDS011;9382;53.242;10.438;2023-04-06T12:03:52;7.53;;;6.63;;
18505;SDS011;9382;53.242;10.438;2023-04-06T12:06:19;10.03;;;6.40;;
18505;SDS011;9382;53.242;10.438;2023-04-06T12:08:45;8.03;;;6.40;;
18505;SDS011;9382;53.242;10.438;2023-04-06T12:11:13;7.50;;;6.50;;
18505;SDS011;9382;53.242;10.438;2023-04-06T12:13:40;11.30;;;7.37;;
18505;SDS011;9382;53.242;10.438;2023-04-06T12:16:07;8.97;;;6.47;;
18505;SDS011;9382;53.242;10.438;2023-04-06T12:18:34;10.87;;;6.90;;
18505;SDS011;9382;53.242;10.438;2023-04-06T12:21:00;8.53;;;6.97;;
18505;SDS011;9382;53.242;10.438;2023-04-06T12:23:27;10.50;;;6.67;;
18505;SDS011;9382;53.242;10.438;2023-04-06T12:25:54;8.27;;;6.67;;
18505;SDS011;9382;53.242;10.438;2023-04-06T12:28:22;9.63;;;6.63;;
18505;SDS011;9382;53.242;10.438;2023-04-06T12:30:51;8.63;;;7.03;;
18505;SDS011;9382;53.242;10.438;2023-04-06T12:33:19;11.97;;;7.00;;
18505;SDS011;9382;53.242;10.438;2023-04-06T12:35:46;8.20;;;6.80;;
18505;SDS011;9382;53.242;10.438;2023-04-06T12:38:13;9.50;;;7.40;;
18505;SDS011;9382;53.242;10.438;2023-04-06T12:40:41;9.70;;;6.43;;
18505;SDS011;9382;53.242;10.438;2023-04-06T12:43:07;12.43;;;7.10;;
18505;SDS011;9382;53.242;10.438;2023-04-06T12:45:36;8.57;;;6.60;;
18505;SDS011;9382;53.242;10.438;2023-04-06T12:48:03;8.93;;;6.63;;
18505;SDS011;9382;53.242;10.438;2023-04-06T12:50:30;8.50;;;6.87;;
18505;SDS011;9382;53.242;10.438;2023-04-06T12:52:56;9.53;;;6.83;;
18505;SDS011;9382;53.242;10.438;2023-04-06T12:55:23;9.83;;;6.90;;
18505;SDS011;9382;53.242;10.438;2023-04-06T12:57:50;8.77;;;6.97;;
18505;SDS011;9382;53.242;10.438;2023-04-06T13:00:17;8.30;;;6.73;;
18505;SDS011;9382;53.242;10.438;2023-04-06T13:02:46;8.13;;;7.00;;
18505;SDS011;9382;53.242;10.438;2023-04-06T13:05:13;8.03;;;6.43;;
18505;SDS011;9382;53.242;10.438;2023-04-06T13:07:43;10.53;;;7.00;;
18505;SDS011;9382;53.242;10.438;2023-04-06T13:10:10;8.83;;;6.93;;
18505;SDS011;9382;53.242;10.438;2023-04-06T13:12:37;7.93;;;6.90;;
18505;SDS011;9382;53.242;10.438;2023-04-06T13:15:04;10.50;;;6.60;;
18505;SDS011;9382;53.242;10.438;2023-04-06T13:17:32;8.73;;;6.37;;
18505;SDS011;9382;53.242;10.438;2023-04-06T13:20:00;8.97;;;6.23;;
18505;SDS011;9382;53.242;10.438;2023-04-06T13:22:28;8.13;;;6.93;;
18505;SDS011;9382;53.242;10.438;2023-04-06T13:24:55;8.77;;;6.43;;
18505;SDS011;9382;53.242;10.438;2023-04-06T13:27:22;9.18;;;7.00;;
18505;SDS011;9382;53.242;10.438;2023-04-06T13:29:48;8.47;;;6.50;;
18505;SDS011;9382;53.242;10.438;2023-04-06T13:32:15;8.13;;;6.80;;
18505;SDS011;9382;53.242;10.438;2023-04-06T13:34:42;9.07;;;6.80;;
18505;SDS011;9382;53.242;10.438;2023-04-06T13:37:11;8.20;;;6.30;;
18505;SDS011;9382;53.242;10.438;2023-04-06T13:39:38;10.60;;;7.13;;
18505;SDS011;9382;53.242;10.438;2023-04-06T13:42:07;8.68;;;7.20;;
18505;SDS011;9382;53.242;10.438;2023-04-06T13:44:36;9.37;;;7.10;;
18505;SDS011;9382;53.242;10.438;2023-04-06T13:47:03;8.55;;;6.43;;
18505;SDS011;9382;53.242;10.438;2023-04-06T13:49:29;9.53;;;6.80;;
18505;SDS011;9382;53.242;10.438;2023-04-06T13:51:56;8.25;;;6.80;;
18505;SDS011;9382;53.242;10.438;2023-04-06T13:54:25;10.00;;;6.35;;
18505;SDS011;9382;53.242;10.438;2023-04-06T13:56:52;10.00;;;6.70;;
18505;SDS011;9382;53.242;10.438;2023-04-06T13:59:19;8.60;;;6.82;;
18505;SDS011;9382;53.242;10.438;2023-04-06T14:01:47;10.80;;;6.43;;
18505;SDS011;9382;53.242;10.438;2023-04-06T14:04:14;8.13;;;6.65;;
18505;SDS011;9382;53.242;10.438;2023-04-06T14:06:40;8.50;;;6.95;;
18505;SDS011;9382;53.242;10.438;2023-04-06T14:09:07;8.93;;;6.68;;
18505;SDS011;9382;53.242;10.438;2023-04-06T14:11:35;9.02;;;7.03;;
18505;SDS011;9382;53.242;10.438;2023-04-06T14:14:03;8.90;;;6.50;;
18505;SDS011;9382;53.242;10.438;2023-04-06T14:16:30;8.90;;;6.47;;
18505;SDS011;9382;53.242;10.438;2023-04-06T14:18:56;9.68;;;6.72;;
18505;SDS011;9382;53.242;10.438;2023-04-06T14:21:23;14.50;;;6.30;;
18505;SDS011;9382;53.242;10.438;2023-04-06T14:23:51;8.65;;;6.78;;
18505;SDS011;9382;53.242;10.438;2023-04-06T14:26:18;7.50;;;6.43;;
18505;SDS011;9382;53.242;10.438;2023-04-06T14:28:46;10.48;;;6.93;;
18505;SDS011;9382;53.242;10.438;2023-04-06T14:31:14;8.70;;;6.90;;
18505;SDS011;9382;53.242;10.438;2023-04-06T14:33:42;10.82;;;7.25;;
18505;SDS011;9382;53.242;10.438;2023-04-06T14:36:09;8.35;;;6.45;;
18505;SDS011;9382;53.242;10.438;2023-04-06T14:38:36;7.90;;;6.82;;
18505;SDS011;9382;53.242;10.438;2023-04-06T14:41:03;6.95;;;6.30;;